Barre Y Va 3 — FAD9023 — position and weather

sailwx.info

Track history (hours):
 
Tides and Currents Weather Stations Pressure Air Temp Water Temp Dewpoint Dewpoint Depression Visibility Wind Speed Wind Dir Waves Ship Positions

Barre Y Va 3

Last reported at 2017-Oct-17 18:07 UTC. Time now 2017-Nov-18 21:49 UTC.
Position N 49°29' E 000°06'.
Warning: this ship's position is 32 days out of date.

Length 10 m.

Type: Sailing vessel. MMSI: 227442420.

Date/timePositionNaut miles runAvg speedWind from/ knotsBaromVisibWave heightAir tempDewpointWater temp
2017-Oct-17 18:07N 49°29' E 000°06'0 0.0
2017-Oct-17 17:58N 49°29' E 000°06'0 0.0
2017-Oct-17 17:28N 49°29' E 000°06'0 0.7
2017-Oct-17 17:00N 49°29' E 000°06'3 5.8
2017-Oct-17 16:30N 49°31' E 000°02'1 2.9
2017-Oct-17 16:00N 49°30' W 000°00'0 0.8
2017-Oct-17 15:30N 49°31' W 000°00'2 4.4
2017-Oct-17 15:00N 49°30' E 000°03'1 1.6
2017-Oct-17 14:30N 49°31' E 000°02'3 0.1
2017-Oct-15 17:37N 49°29' E 000°06'0 0.0
2017-Oct-15 17:28N 49°29' E 000°06'1 2.2
2017-Oct-15 17:00N 49°30' E 000°04'7 1.2
2017-Oct-15 11:00N 49°37' E 000°05'7 4.7
2017-Oct-15 09:34N 49°30' E 000°04'1 5.9
2017-Oct-15 09:28N 49°30' E 000°04'1 0.1
2017-Oct-14 20:30N 49°29' E 000°06'  
Track history (hours):
 
Tides and Currents Weather Stations Pressure Air Temp Water Temp Dewpoint Dewpoint Depression Visibility Wind Speed Wind Dir Waves Ship Positions

Barre Y Va 3

Last reported at 2017-Oct-17 18:07 UTC. Time now 2017-Nov-18 21:49 UTC.
Position N 49°29' E 000°06'.
Warning: this ship's position is 32 days out of date.

Length 10 m.

Type: Sailing vessel. MMSI: 227442420.

Date/timePositionNaut miles runAvg speedWind from/ knotsBaromVisibWave heightAir tempDewpointWater temp
2017-Oct-17 18:07N 49°29' E 000°06'0 0.0
2017-Oct-17 17:58N 49°29' E 000°06'0 0.0
2017-Oct-17 17:28N 49°29' E 000°06'0 0.7
2017-Oct-17 17:00N 49°29' E 000°06'3 5.8
2017-Oct-17 16:30N 49°31' E 000°02'1 2.9
2017-Oct-17 16:00N 49°30' W 000°00'0 0.8
2017-Oct-17 15:30N 49°31' W 000°00'2 4.4
2017-Oct-17 15:00N 49°30' E 000°03'1 1.6
2017-Oct-17 14:30N 49°31' E 000°02'3 0.1
2017-Oct-15 17:37N 49°29' E 000°06'0 0.0
2017-Oct-15 17:28N 49°29' E 000°06'1 2.2
2017-Oct-15 17:00N 49°30' E 000°04'7 1.2
2017-Oct-15 11:00N 49°37' E 000°05'7 4.7
2017-Oct-15 09:34N 49°30' E 000°04'1 5.9
2017-Oct-15 09:28N 49°30' E 000°04'1 0.1
2017-Oct-14 20:30N 49°29' E 000°06'  

Dump ship's entire track history